Time;durP1;ratioP1;P1;durP2;ratioP2;P2;SDS_P1;SDS_P2;PMS_P1;PMS_P2;Temp;Humidity;BMP_temperature;BMP_pressure;BME280_temperature;BME280_humidity;BME280_pressure;Samples;Min_cycle;Max_cycle;Signal;HPM_P1;HPM_P2
2022/02/05 00:00:31;;;;;;;1.60;0.83;;;7.70;99.90;;;;;;6266140;23;20158;-94
2022/02/05 00:05:52;;;;;;;1.47;0.90;;;7.70;99.90;;;;;;6272671;22;20180;-92
2022/02/05 00:08:45;;;;;;;3.27;1.00;;;7.70;99.90;;;;;;6220411;22;20283;-92
2022/02/05 00:20:29;;;;;;;1.40;0.90;;;7.50;99.90;;;;;;6231138;23;20169;-94
2022/02/05 00:39:56;;;;;;;2.00;1.10;;;7.40;99.90;;;;;;6244080;22;20220;-92
2022/02/05 00:45:11;;;;;;;0.90;0.90;;;7.40;99.90;;;;;;6198731;22;20332;-94
2022/02/05 00:50:25;;;;;;;3.40;3.10;;;7.40;99.90;;;;;;6207586;22;20218;-94
2022/02/05 00:55:35;;;;;;;4.00;3.63;;;7.40;99.90;;;;;;6211347;22;20207;-95
2022/02/05 01:00:43;;;;;;;2.73;2.40;;;7.40;99.90;;;;;;6209735;22;20198;-84
2022/02/05 01:24:44;;;;;;;2.73;2.27;;;7.80;99.90;;;;;;6149506;23;20218;-93
2022/02/05 01:27:30;;;;;;;0.70;0.70;;;7.80;99.90;;;;;;6142137;23;20182;-94
2022/02/05 01:30:13;;;;;;;2.47;0.63;;;7.90;99.90;;;;;;6149019;23;20217;-93
2022/02/05 01:35:49;;;;;;;2.83;1.87;;;8.00;99.90;;;;;;6220024;22;20660;-92
2022/02/05 01:49:51;;;;;;;1.73;1.60;;;8.10;99.90;;;;;;6223444;22;20247;-87
2022/02/05 01:55:29;;;;;;;3.77;3.53;;;8.20;99.90;;;;;;6166606;23;20209;-94
2022/02/05 01:58:14;;;;;;;0.50;0.43;;;8.20;99.90;;;;;;6131483;23;20175;-94
2022/02/05 02:11:44;;;;;;;19.93;2.50;;;8.10;99.90;;;;;;6273795;22;20156;-93
2022/02/05 02:26:00;;;;;;;0.90;0.60;;;8.10;99.90;;;;;;6088474;23;20186;-91
2022/02/05 02:28:45;;;;;;;1.03;0.63;;;8.10;99.90;;;;;;6169557;23;20191;-92
2022/02/05 02:31:22;;;;;;;0.73;0.70;;;8.10;99.90;;;;;;6206345;23;20209;-93
2022/02/05 02:33:57;;;;;;;0.70;0.60;;;8.10;99.90;;;;;;6206062;23;20626;-93
2022/02/05 02:36:34;;;;;;;0.87;0.77;;;8.00;99.90;;;;;;6206035;23;20169;-92
2022/02/05 02:39:12;;;;;;;0.67;0.63;;;8.10;99.90;;;;;;6206485;23;20180;-93
2022/02/05 02:41:49;;;;;;;0.93;0.60;;;8.00;99.90;;;;;;6183288;23;20260;-93
2022/02/05 02:44:20;;;;;;;1.00;0.97;;;8.10;99.90;;;;;;6184728;23;20166;-93
2022/02/05 02:46:52;;;;;;;2.70;0.90;;;8.00;99.90;;;;;;6185543;23;20173;-91
2022/02/05 02:49:39;;;;;;;0.60;0.60;;;8.00;99.90;;;;;;6185382;23;20170;-93
2022/02/05 02:57:54;;;;;;;2.77;2.43;;;8.10;99.90;;;;;;6212450;23;20161;-94
2022/02/05 03:00:26;;;;;;;2.07;1.00;;;8.10;99.90;;;;;;6187281;23;20168;-92
2022/02/05 03:02:58;;;;;;;43.20;6.73;;;8.10;99.90;;;;;;6210991;23;20161;-93
2022/02/05 03:05:30;;;;;;;2.87;1.40;;;8.00;99.90;;;;;;6212615;23;20276;-91
2022/02/05 03:08:02;;;;;;;2.93;1.30;;;8.10;99.90;;;;;;6209181;23;20183;-93
2022/02/05 03:10:39;;;;;;;3.70;1.37;;;8.10;99.90;;;;;;6208992;23;20207;-93
2022/02/05 03:13:12;;;;;;;2.10;1.10;;;8.10;99.90;;;;;;6182997;23;20168;-92
2022/02/05 03:15:49;;;;;;;1.93;1.00;;;8.10;99.90;;;;;;6206715;23;20181;-92
2022/02/05 03:18:31;;;;;;;2.77;1.03;;;8.10;99.90;;;;;;6204788;23;20620;-93
2022/02/05 03:21:04;;;;;;;2.30;1.10;;;8.10;99.90;;;;;;6198476;23;20188;-93
2022/02/05 03:23:36;;;;;;;4.27;1.00;;;8.10;99.90;;;;;;6206753;23;20212;-93
2022/02/05 03:26:09;;;;;;;2.83;1.00;;;8.10;99.90;;;;;;6205323;23;20170;-92
2022/02/05 03:28:40;;;;;;;2.83;1.77;;;8.10;99.90;;;;;;6203193;23;20188;-92
2022/02/05 03:31:12;;;;;;;3.17;1.03;;;8.10;99.90;;;;;;6177790;23;20197;-93
2022/02/05 03:33:44;;;;;;;2.07;0.90;;;8.10;99.90;;;;;;6202930;23;20171;-91
2022/02/05 03:36:15;;;;;;;1.23;0.90;;;8.10;99.90;;;;;;6200342;23;20169;-92
2022/02/05 03:38:46;;;;;;;1.83;0.80;;;8.10;99.90;;;;;;6178561;23;20190;-89
2022/02/05 03:41:19;;;;;;;0.93;0.80;;;8.10;99.90;;;;;;6204985;23;21246;-90
2022/02/05 03:43:53;;;;;;;2.03;0.90;;;8.10;99.90;;;;;;6175731;23;20648;-93
2022/02/05 03:46:24;;;;;;;2.27;0.80;;;8.10;99.90;;;;;;6175931;23;20170;-93
2022/02/05 03:48:55;;;;;;;3.63;2.90;;;8.10;99.90;;;;;;6173455;23;20178;-92
2022/02/05 03:51:27;;;;;;;3.50;1.40;;;8.10;99.90;;;;;;6174000;23;20216;-93
2022/02/05 03:54:00;;;;;;;1.13;0.83;;;8.10;99.90;;;;;;6174840;23;20173;-93
2022/02/05 03:56:34;;;;;;;3.23;0.97;;;8.10;99.90;;;;;;6173024;23;20170;-93
2022/02/05 03:59:05;;;;;;;1.77;1.27;;;8.10;99.90;;;;;;6173973;23;20189;-93
2022/02/05 04:01:36;;;;;;;3.23;0.90;;;8.00;99.90;;;;;;6172809;23;20189;-93
2022/02/05 04:04:08;;;;;;;5.10;1.13;;;8.00;99.90;;;;;;6173771;23;20189;-92
2022/02/05 04:06:39;;;;;;;2.10;0.87;;;8.00;99.90;;;;;;6173452;23;20177;-92
2022/02/05 04:09:16;;;;;;;1.50;0.80;;;7.90;99.90;;;;;;6174102;23;20191;-92
2022/02/05 04:15:57;;;;;;;1.10;0.90;;;7.90;99.90;;;;;;6174812;23;20232;-92
2022/02/05 04:17:43;;;;;;;4.13;0.97;;;8.00;99.90;;;;;;6151637;23;20169;-92
2022/02/05 04:20:15;;;;;;;0.83;0.77;;;8.00;99.90;;;;;;6172500;23;20180;-92
2022/02/05 04:22:46;;;;;;;4.60;1.80;;;8.00;99.90;;;;;;6169779;23;20170;-93
2022/02/05 04:25:19;;;;;;;1.90;0.90;;;8.00;99.90;;;;;;6174998;23;20173;-92
2022/02/05 04:27:53;;;;;;;2.30;1.00;;;8.00;99.90;;;;;;6172537;23;20188;-92
2022/02/05 04:30:24;;;;;;;2.97;1.10;;;8.00;99.90;;;;;;6175781;23;20189;-92
2022/02/05 04:32:55;;;;;;;1.77;0.60;;;8.00;99.90;;;;;;6171745;23;20270;-92
2022/02/05 04:35:26;;;;;;;2.33;0.70;;;8.00;99.90;;;;;;6173194;23;20191;-93
2022/02/05 04:38:00;;;;;;;2.23;0.83;;;7.90;99.90;;;;;;6168920;23;20196;-93
2022/02/05 04:40:37;;;;;;;2.30;0.80;;;7.90;99.90;;;;;;6176554;23;20274;-93
2022/02/05 04:43:20;;;;;;;0.70;0.70;;;7.90;99.90;;;;;;6172191;23;20196;-93
2022/02/05 04:54:42;;;;;;;3.07;1.00;;;7.90;99.90;;;;;;6135762;22;20217;-93
2022/02/05 04:57:32;;;;;;;2.67;1.03;;;7.80;99.90;;;;;;6233820;22;20196;-94
2022/02/05 05:00:16;;;;;;;1.50;0.87;;;7.80;99.90;;;;;;6233646;23;20173;-94
2022/02/05 05:05:47;;;;;;;1.93;0.80;;;7.80;99.90;;;;;;6235361;22;20183;-95
2022/02/05 05:08:40;;;;;;;1.83;1.00;;;7.80;99.90;;;;;;6234661;23;20172;-94
2022/02/05 05:19:48;;;;;;;1.53;0.93;;;7.80;99.90;;;;;;6212674;23;20247;-93
2022/02/05 05:22:19;;;;;;;2.30;0.83;;;7.80;99.90;;;;;;6240472;22;20160;-93
2022/02/05 05:24:51;;;;;;;3.07;1.10;;;7.80;99.90;;;;;;6216722;22;20174;-93
2022/02/05 05:27:24;;;;;;;2.30;0.93;;;7.80;99.90;;;;;;6243535;22;20171;-91
2022/02/05 05:29:56;;;;;;;2.47;0.70;;;7.80;99.90;;;;;;6218948;22;20172;-92
2022/02/05 05:32:30;;;;;;;1.70;0.90;;;7.80;99.90;;;;;;6241905;23;20200;-92
2022/02/05 05:35:02;;;;;;;3.03;1.37;;;7.70;99.90;;;;;;6242645;22;20172;-92
2022/02/05 05:37:36;;;;;;;2.50;1.30;;;7.70;99.90;;;;;;6239768;22;20176;-91
2022/02/05 05:40:08;;;;;;;1.63;0.90;;;7.80;99.90;;;;;;6238869;23;20210;-93
2022/02/05 05:42:42;;;;;;;2.30;0.93;;;7.70;99.90;;;;;;6236595;23;20176;-93
2022/02/05 05:48:06;;;;;;;3.00;0.97;;;7.80;99.90;;;;;;6225699;23;20255;-91
2022/02/05 05:50:59;;;;;;;2.27;0.93;;;7.80;99.90;;;;;;6221853;23;20169;-92
2022/02/05 05:53:31;;;;;;;1.57;0.70;;;7.70;99.90;;;;;;6227712;23;20186;-92
2022/02/05 05:56:03;;;;;;;2.30;0.90;;;7.70;99.90;;;;;;6230726;23;20187;-92
2022/02/05 05:58:34;;;;;;;1.00;0.60;;;7.70;99.90;;;;;;6221904;23;20199;-92
2022/02/05 06:01:05;;;;;;;1.33;0.70;;;7.70;99.90;;;;;;6221879;23;20175;-92
2022/02/05 06:03:40;;;;;;;2.00;0.80;;;7.70;99.90;;;;;;6221944;23;20243;-93
2022/02/05 06:06:11;;;;;;;0.80;0.50;;;7.70;99.90;;;;;;6221433;23;20195;-93
2022/02/05 06:08:42;;;;;;;1.20;0.73;;;7.70;99.90;;;;;;6221040;23;20191;-93
2022/02/05 06:11:13;;;;;;;1.80;0.80;;;7.70;99.90;;;;;;6222399;23;20528;-91
2022/02/05 06:13:44;;;;;;;2.43;0.60;;;7.70;99.90;;;;;;6221328;23;20172;-92
2022/02/05 06:16:19;;;;;;;1.57;0.70;;;7.70;99.90;;;;;;6202648;23;20252;-94
2022/02/05 06:18:52;;;;;;;1.77;0.73;;;7.70;99.90;;;;;;6230780;23;20195;-92
2022/02/05 06:21:23;;;;;;;0.80;0.80;;;7.60;99.90;;;;;;6222081;23;20184;-94
2022/02/05 06:23:54;;;;;;;0.70;0.70;;;7.60;99.90;;;;;;6222922;23;20191;-94
2022/02/05 06:26:26;;;;;;;1.83;0.67;;;7.60;99.90;;;;;;6223985;23;20534;-94
2022/02/05 06:28:57;;;;;;;1.93;0.70;;;7.60;99.90;;;;;;6221368;23;20171;-93
2022/02/05 06:34:47;;;;;;;1.97;0.70;;;7.60;99.90;;;;;;6235138;23;20180;-92
2022/02/05 06:37:18;;;;;;;2.17;0.80;;;7.60;99.90;;;;;;6230026;23;20190;-92
2022/02/05 06:39:49;;;;;;;1.17;0.63;;;7.60;99.90;;;;;;6228105;23;20195;-93
2022/02/05 06:42:20;;;;;;;1.83;0.80;;;7.50;99.90;;;;;;6230224;23;20180;-92
2022/02/05 06:44:51;;;;;;;1.47;0.80;;;7.50;99.90;;;;;;6201972;23;20175;-92
2022/02/05 06:47:22;;;;;;;5.87;0.80;;;7.60;99.90;;;;;;6194467;23;20176;-92
2022/02/05 06:49:57;;;;;;;0.80;0.70;;;7.60;99.90;;;;;;6194662;23;20206;-92
2022/02/05 06:52:28;;;;;;;4.00;0.70;;;7.50;99.90;;;;;;6220107;23;20215;-93
2022/02/05 06:54:59;;;;;;;1.00;0.53;;;7.50;99.90;;;;;;6220413;23;20226;-93
2022/02/05 06:57:30;;;;;;;0.83;0.60;;;7.50;99.90;;;;;;6220616;23;20177;-94
2022/02/05 07:00:02;;;;;;;1.03;0.63;;;7.50;99.90;;;;;;6225359;23;20164;-93
2022/02/05 07:02:33;;;;;;;1.43;0.60;;;7.50;99.90;;;;;;6221911;23;20192;-94
2022/02/05 07:05:07;;;;;;;0.90;0.70;;;7.50;99.90;;;;;;6222137;23;20622;-92
2022/02/05 07:07:38;;;;;;;1.70;0.80;;;7.50;99.90;;;;;;6222936;23;20206;-92
2022/02/05 07:10:10;;;;;;;0.60;0.60;;;7.50;99.90;;;;;;6200431;23;20601;-93
2022/02/05 07:12:59;;;;;;;1.33;0.70;;;7.40;99.90;;;;;;6223639;23;20196;-93
2022/02/05 07:15:34;;;;;;;1.43;0.70;;;7.40;99.90;;;;;;6235604;23;20188;-92
2022/02/05 07:18:13;;;;;;;2.33;0.63;;;7.40;99.90;;;;;;6235039;23;20175;-92
2022/02/05 07:20:52;;;;;;;1.50;0.57;;;7.40;99.90;;;;;;6230733;23;20175;-92
2022/02/05 07:29:17;;;;;;;1.60;0.70;;;7.40;99.90;;;;;;6236763;23;20205;-92
2022/02/05 07:31:50;;;;;;;1.63;0.60;;;7.40;99.90;;;;;;6241672;22;20196;-94
2022/02/05 07:34:23;;;;;;;1.90;0.60;;;7.30;99.90;;;;;;6241133;22;20162;-94
2022/02/05 07:37:00;;;;;;;0.70;0.43;;;7.30;99.90;;;;;;6235779;22;20160;-94
2022/02/05 07:39:32;;;;;;;0.60;0.60;;;7.30;99.90;;;;;;6224353;23;20177;-92
2022/02/05 07:42:03;;;;;;;1.50;0.50;;;7.30;99.90;;;;;;6224047;23;20168;-92
2022/02/05 07:44:35;;;;;;;1.00;0.80;;;7.30;99.90;;;;;;6224062;23;20202;-91
2022/02/05 07:47:08;;;;;;;0.90;0.70;;;7.30;99.90;;;;;;6222223;23;20175;-93
2022/02/05 07:49:42;;;;;;;1.93;0.70;;;7.30;99.90;;;;;;6223096;23;20173;-93
2022/02/05 07:52:15;;;;;;;0.93;0.53;;;7.20;99.90;;;;;;6221765;23;20256;-94
2022/02/05 07:54:46;;;;;;;1.63;0.50;;;7.30;99.90;;;;;;6223865;23;20199;-92
2022/02/05 07:57:16;;;;;;;1.23;0.70;;;7.30;99.90;;;;;;6221013;23;20196;-92
2022/02/05 07:59:47;;;;;;;2.00;0.70;;;7.20;99.90;;;;;;6223323;23;20212;-93
2022/02/05 08:02:18;;;;;;;1.70;0.60;;;7.20;99.90;;;;;;6222175;23;20180;-93
2022/02/05 08:04:49;;;;;;;1.90;0.70;;;7.20;99.90;;;;;;6194911;23;20252;-93
2022/02/05 08:07:23;;;;;;;0.97;0.90;;;7.20;99.90;;;;;;6221346;23;20180;-92
2022/02/05 08:09:58;;;;;;;0.80;0.60;;;7.20;99.90;;;;;;6227364;23;20192;-93
2022/02/05 08:12:31;;;;;;;2.80;2.50;;;7.20;99.90;;;;;;6224708;23;20208;-93
2022/02/05 08:15:06;;;;;;;1.37;0.53;;;7.20;99.90;;;;;;6220235;23;20204;-91
2022/02/05 08:17:38;;;;;;;1.23;0.63;;;7.20;99.90;;;;;;6223060;23;20176;-92
2022/02/05 08:20:10;;;;;;;1.33;0.70;;;7.20;99.90;;;;;;6220209;23;20206;-92
2022/02/05 08:22:46;;;;;;;1.10;0.70;;;7.20;99.90;;;;;;6209455;23;20168;-93
2022/02/05 08:25:19;;;;;;;1.30;0.70;;;7.10;99.90;;;;;;6232064;23;20176;-94
2022/02/05 08:27:50;;;;;;;2.53;1.00;;;7.10;99.90;;;;;;6230229;23;20176;-94
2022/02/05 08:30:24;;;;;;;1.03;0.73;;;7.10;99.90;;;;;;6225511;23;20168;-93
2022/02/05 08:32:55;;;;;;;0.60;0.60;;;7.10;99.90;;;;;;6219780;23;20211;-93
2022/02/05 08:35:27;;;;;;;2.13;0.73;;;7.10;99.90;;;;;;6219735;23;20202;-94
2022/02/05 08:38:01;;;;;;;3.63;1.03;;;7.00;99.90;;;;;;6219478;23;20588;-92
2022/02/05 08:40:32;;;;;;;1.67;0.73;;;7.10;99.90;;;;;;6219977;23;20603;-92
2022/02/05 08:43:04;;;;;;;2.03;0.63;;;7.00;99.90;;;;;;6219099;23;20256;-93
2022/02/05 08:45:35;;;;;;;1.43;0.70;;;7.00;99.90;;;;;;6220050;23;20499;-94
2022/02/05 08:48:07;;;;;;;2.07;1.10;;;7.00;99.90;;;;;;6218958;23;20219;-92
2022/02/05 08:50:39;;;;;;;1.00;0.57;;;7.00;99.90;;;;;;6196399;23;20199;-93
2022/02/05 08:53:19;;;;;;;3.47;0.60;;;7.00;99.90;;;;;;6224927;22;20225;-92
2022/02/05 08:55:52;;;;;;;3.43;0.80;;;7.00;99.90;;;;;;6221593;23;20194;-93
2022/02/05 08:58:23;;;;;;;2.47;0.80;;;6.90;99.90;;;;;;6222068;23;20221;-93
2022/02/05 09:01:07;;;;;;;2.13;1.03;;;7.00;99.90;;;;;;6220364;23;20208;-92
2022/02/05 09:03:45;;;;;;;2.63;0.80;;;7.00;99.90;;;;;;6221479;23;20199;-93
2022/02/05 09:06:18;;;;;;;3.10;0.73;;;7.00;99.90;;;;;;6221534;23;20168;-92
2022/02/05 09:08:54;;;;;;;1.70;0.60;;;6.90;99.90;;;;;;6221219;23;20627;-92
2022/02/05 09:11:35;;;;;;;1.40;0.50;;;7.00;99.90;;;;;;6223918;23;20175;-92
2022/02/05 09:14:16;;;;;;;1.10;0.80;;;6.90;99.90;;;;;;6226588;23;20215;-93
2022/02/05 09:16:50;;;;;;;2.73;0.80;;;6.90;99.90;;;;;;6223461;23;20186;-92
2022/02/05 09:19:21;;;;;;;4.33;0.90;;;6.90;99.90;;;;;;6224251;23;20173;-93
2022/02/05 09:21:52;;;;;;;1.77;0.80;;;6.90;99.90;;;;;;6222628;23;20196;-90
2022/02/05 09:24:25;;;;;;;1.70;0.70;;;6.90;99.90;;;;;;6203527;23;20177;-93
2022/02/05 09:27:00;;;;;;;2.07;0.67;;;6.90;99.90;;;;;;6222160;23;20169;-93
2022/02/05 09:29:36;;;;;;;1.37;0.70;;;6.90;99.90;;;;;;6224038;23;20196;-92
2022/02/05 09:32:09;;;;;;;1.63;0.63;;;6.90;99.90;;;;;;6224362;23;20177;-92
2022/02/05 09:34:40;;;;;;;3.37;1.07;;;6.80;99.90;;;;;;6224840;23;20246;-92
2022/02/05 09:37:11;;;;;;;2.60;0.57;;;6.80;99.90;;;;;;6227546;23;20183;-93
2022/02/05 09:39:44;;;;;;;2.00;0.73;;;7.00;99.90;;;;;;6221887;23;20192;-92
2022/02/05 09:42:15;;;;;;;1.87;0.70;;;6.90;99.90;;;;;;6225315;23;20260;-93
2022/02/05 09:44:47;;;;;;;3.70;0.97;;;6.90;99.90;;;;;;6196042;23;20235;-92
2022/02/05 09:47:22;;;;;;;2.80;1.00;;;6.80;99.90;;;;;;6225514;23;20180;-92
2022/02/05 09:49:53;;;;;;;2.07;0.90;;;6.80;99.90;;;;;;6223016;23;20203;-93
2022/02/05 09:52:26;;;;;;;2.63;0.80;;;6.80;99.90;;;;;;6237980;22;20176;-92
2022/02/05 09:54:59;;;;;;;4.43;1.00;;;6.80;99.90;;;;;;6241674;23;20184;-93
2022/02/05 09:57:30;;;;;;;2.93;0.80;;;6.80;99.90;;;;;;6239927;23;20191;-92
2022/02/05 10:00:03;;;;;;;1.70;0.80;;;6.80;99.90;;;;;;6240249;23;20204;-92
2022/02/05 10:02:37;;;;;;;5.30;1.57;;;6.80;99.90;;;;;;6208343;23;20492;-94
2022/02/05 10:05:15;;;;;;;2.53;0.80;;;6.80;99.90;;;;;;6222158;23;20230;-93
2022/02/05 10:07:56;;;;;;;6.50;0.97;;;6.80;99.90;;;;;;6220296;23;20190;-93
2022/02/05 10:10:39;;;;;;;2.67;0.80;;;6.80;99.90;;;;;;6221914;23;20200;-93
2022/02/05 10:13:12;;;;;;;3.47;0.83;;;6.80;99.90;;;;;;6221261;23;20212;-93
2022/02/05 10:15:47;;;;;;;3.47;0.80;;;6.90;99.90;;;;;;6221394;23;20183;-92
2022/02/05 10:18:25;;;;;;;2.87;0.70;;;6.80;99.90;;;;;;6220779;23;20165;-92
2022/02/05 10:20:57;;;;;;;1.83;0.83;;;6.70;99.90;;;;;;6227457;23;20157;-91
2022/02/05 10:23:29;;;;;;;3.90;1.23;;;6.70;99.90;;;;;;6198017;23;20171;-92
2022/02/05 10:26:02;;;;;;;4.80;1.00;;;6.70;99.90;;;;;;6223262;23;20168;-93
2022/02/05 10:28:34;;;;;;;2.30;0.70;;;6.60;99.90;;;;;;6222001;23;20181;-93
2022/02/05 10:31:04;;;;;;;1.27;0.80;;;6.70;99.90;;;;;;6223023;23;20248;-93
2022/02/05 10:33:35;;;;;;;3.60;0.90;;;6.70;99.90;;;;;;6221888;23;20207;-92
2022/02/05 10:36:13;;;;;;;2.10;0.60;;;6.70;99.90;;;;;;6231514;23;20239;-91
2022/02/05 10:39:08;;;;;;;2.10;0.67;;;6.70;99.90;;;;;;6227552;23;20181;-92
2022/02/05 10:44:32;;;;;;;4.10;0.90;;;6.70;99.90;;;;;;6229816;23;20169;-93
2022/02/05 10:47:03;;;;;;;1.93;0.70;;;6.70;99.90;;;;;;6229371;23;20175;-93
2022/02/05 10:49:43;;;;;;;2.03;0.80;;;6.70;99.90;;;;;;6225450;23;20179;-93
2022/02/05 10:52:27;;;;;;;3.17;0.90;;;6.60;99.90;;;;;;6223434;23;20168;-93
2022/02/05 10:55:07;;;;;;;1.67;0.80;;;6.60;99.90;;;;;;6235403;23;20211;-92
2022/02/05 10:57:54;;;;;;;1.77;0.70;;;6.70;99.90;;;;;;6241068;22;20161;-93
2022/02/05 11:06:01;;;;;;;4.00;1.50;;;6.50;99.90;;;;;;6231365;23;20169;-92
2022/02/05 11:08:33;;;;;;;2.23;0.70;;;6.60;99.90;;;;;;6230066;23;20626;-93
2022/02/05 11:19:27;;;;;;;3.10;0.83;;;6.50;99.90;;;;;;6228314;23;20175;-93
2022/02/05 11:21:59;;;;;;;3.07;1.00;;;6.50;99.90;;;;;;6225161;23;20191;-92
2022/02/05 11:24:32;;;;;;;3.07;1.00;;;6.50;99.90;;;;;;6229521;23;20179;-93
2022/02/05 11:27:02;;;;;;;2.47;0.77;;;6.60;99.90;;;;;;6233520;23;20187;-93
2022/02/05 11:29:36;;;;;;;3.27;1.00;;;6.60;99.90;;;;;;6234343;23;20519;-94
2022/02/05 11:32:24;;;;;;;4.77;1.20;;;6.50;99.90;;;;;;6223301;23;20627;-93
2022/02/05 11:35:06;;;;;;;4.43;1.00;;;6.40;99.90;;;;;;6228866;23;20200;-92
2022/02/05 11:37:55;;;;;;;4.37;1.30;;;6.40;99.90;;;;;;6237146;23;20190;-92
2022/02/05 11:40:52;;;;;;;5.13;1.37;;;6.30;99.90;;;;;;6230446;23;20183;-92
2022/02/05 11:43:25;;;;;;;2.93;1.30;;;6.30;99.90;;;;;;6222293;23;20188;-93
2022/02/05 11:46:24;;;;;;;5.03;1.10;;;6.10;99.90;;;;;;6221650;23;20195;-94
2022/02/05 11:49:00;;;;;;;4.77;1.30;;;6.10;99.90;;;;;;6137671;23;20495;-93
2022/02/05 11:51:36;;;;;;;6.07;1.53;;;6.00;99.90;;;;;;6221399;23;20247;-92
2022/02/05 11:54:15;;;;;;;13.37;2.47;;;6.10;99.90;;;;;;6220299;23;20196;-92
2022/02/05 11:56:55;;;;;;;2.63;1.03;;;6.00;99.90;;;;;;6223271;23;20188;-93
2022/02/05 11:59:30;;;;;;;5.73;2.07;;;6.10;99.90;;;;;;6211599;23;20181;-91
2022/02/05 12:02:22;;;;;;;6.20;1.50;;;6.10;99.90;;;;;;6235126;23;20164;-91
2022/02/05 12:05:14;;;;;;;3.67;1.40;;;6.10;99.90;;;;;;6235049;23;20603;-92
2022/02/05 12:08:01;;;;;;;9.93;1.77;;;6.10;99.90;;;;;;6234506;23;20175;-91
2022/02/05 12:10:36;;;;;;;11.77;1.77;;;6.10;99.90;;;;;;6241130;22;20164;-92
2022/02/05 12:13:17;;;;;;;10.13;1.53;;;6.10;99.90;;;;;;6241944;22;20176;-92
2022/02/05 12:15:49;;;;;;;9.27;1.87;;;6.10;99.90;;;;;;6216276;23;20203;-91
2022/02/05 12:18:26;;;;;;;6.53;1.70;;;6.10;99.90;;;;;;6232069;23;20180;-91
2022/02/05 12:21:12;;;;;;;8.47;1.40;;;6.10;99.90;;;;;;6222851;23;20215;-92
2022/02/05 12:24:35;;;;;;;6.60;1.67;;;6.10;99.90;;;;;;6225061;23;20168;-91
2022/02/05 12:27:33;;;;;;;4.07;1.43;;;6.10;99.90;;;;;;6224674;23;20205;-92
2022/02/05 12:30:40;;;;;;;7.13;1.27;;;6.10;99.90;;;;;;6233115;23;20179;-93
2022/02/05 12:33:13;;;;;;;9.93;1.60;;;6.10;99.90;;;;;;6236549;23;20183;-92
2022/02/05 12:35:55;;;;;;;6.37;1.33;;;6.10;99.90;;;;;;6239429;23;20227;-92
2022/02/05 12:38:27;;;;;;;10.33;1.47;;;6.20;99.90;;;;;;6238288;23;20207;-93
2022/02/05 12:40:58;;;;;;;7.20;1.57;;;6.20;99.90;;;;;;6223809;23;20172;-93
2022/02/05 12:43:31;;;;;;;9.87;1.63;;;6.20;99.90;;;;;;6222888;23;20177;-93
2022/02/05 12:46:10;;;;;;;12.60;1.70;;;6.20;99.90;;;;;;6223043;23;20211;-93
2022/02/05 12:48:43;;;;;;;7.13;1.63;;;6.20;99.90;;;;;;6221193;23;20227;-93
2022/02/05 12:51:16;;;;;;;7.27;1.50;;;6.20;99.90;;;;;;6221810;23;20169;-93
2022/02/05 12:53:47;;;;;;;6.30;1.57;;;6.20;99.90;;;;;;6221224;23;20188;-94
2022/02/05 12:56:19;;;;;;;12.90;1.90;;;6.20;99.90;;;;;;6221832;23;20704;-93
2022/02/05 12:59:02;;;;;;;6.70;2.00;;;6.10;99.90;;;;;;6221101;23;20169;-92
2022/02/05 13:01:34;;;;;;;10.63;1.50;;;6.10;99.90;;;;;;6220854;23;20611;-94
2022/02/05 13:04:12;;;;;;;11.27;2.03;;;6.00;99.90;;;;;;6196312;23;20209;-93
2022/02/05 13:07:02;;;;;;;6.50;1.60;;;6.00;99.90;;;;;;6224174;23;20219;-93
2022/02/05 13:09:35;;;;;;;7.70;1.40;;;5.90;99.90;;;;;;6221661;23;20196;-93
2022/02/05 13:12:10;;;;;;;7.43;1.60;;;6.00;99.90;;;;;;6229262;23;20553;-92
2022/02/05 13:14:45;;;;;;;5.97;1.63;;;5.90;99.90;;;;;;6221362;23;20215;-92
2022/02/05 13:17:36;;;;;;;7.90;2.07;;;5.90;99.90;;;;;;6220785;23;20172;-93
2022/02/05 13:26:04;;;;;;;3.53;1.60;;;5.80;99.90;;;;;;6221040;23;20218;-93
2022/02/05 13:28:43;;;;;;;9.20;1.93;;;5.90;99.90;;;;;;6220119;23;20199;-92
2022/02/05 13:34:11;;;;;;;12.67;1.57;;;5.90;99.90;;;;;;6219997;23;20191;-94
2022/02/05 13:36:47;;;;;;;7.10;1.53;;;5.90;99.90;;;;;;6196690;23;20202;-92
2022/02/05 13:42:24;;;;;;;15.03;1.80;;;5.90;99.90;;;;;;6221384;23;20176;-93
2022/02/05 13:44:59;;;;;;;5.43;1.30;;;5.80;99.90;;;;;;6195149;23;20195;-92
2022/02/05 13:47:33;;;;;;;6.30;1.53;;;5.90;99.90;;;;;;6220330;23;20685;-92
2022/02/05 13:50:12;;;;;;;9.70;1.60;;;5.90;99.90;;;;;;6220645;23;20240;-92
2022/02/05 13:52:45;;;;;;;4.30;1.53;;;5.90;99.90;;;;;;6222836;23;20169;-93
2022/02/05 13:55:32;;;;;;;8.50;1.87;;;5.90;99.90;;;;;;6222705;23;21276;-93
2022/02/05 13:58:05;;;;;;;8.63;1.47;;;5.90;99.90;;;;;;6220632;23;20188;-93
2022/02/05 14:00:42;;;;;;;8.87;1.57;;;5.90;99.90;;;;;;6221085;23;20246;-94
2022/02/05 14:03:15;;;;;;;7.03;1.33;;;5.90;99.90;;;;;;6221178;23;20180;-93
2022/02/05 14:06:02;;;;;;;8.73;1.63;;;5.90;99.90;;;;;;6221853;23;20203;-93
2022/02/05 14:08:33;;;;;;;11.70;2.10;;;5.80;99.90;;;;;;6220035;23;20207;-93
2022/02/05 14:11:08;;;;;;;8.13;1.40;;;5.80;99.90;;;;;;6195302;23;20180;-93
2022/02/05 14:13:40;;;;;;;8.30;1.70;;;5.70;99.90;;;;;;6221805;23;20187;-93
2022/02/05 14:16:11;;;;;;;7.80;1.70;;;5.70;99.90;;;;;;6222018;23;20224;-93
2022/02/05 14:18:52;;;;;;;5.80;1.50;;;5.70;99.90;;;;;;6221236;23;20169;-93
2022/02/05 14:21:33;;;;;;;6.23;1.20;;;5.70;99.90;;;;;;6221915;23;20192;-93
2022/02/05 14:24:06;;;;;;;7.00;1.50;;;5.70;99.90;;;;;;6227359;23;20192;-93
2022/02/05 14:26:43;;;;;;;6.73;1.47;;;5.70;99.90;;;;;;6240846;23;20187;-94
2022/02/05 14:29:14;;;;;;;4.60;1.67;;;5.70;99.90;;;;;;6241518;22;20171;-93
2022/02/05 14:31:49;;;;;;;6.50;1.67;;;5.70;99.90;;;;;;6241736;22;20168;-93
2022/02/05 14:34:27;;;;;;;7.03;1.77;;;5.70;99.90;;;;;;6228567;23;20240;-92
2022/02/05 14:42:39;;;;;;;5.07;1.20;;;5.60;99.90;;;;;;6221899;23;20184;-93
2022/02/05 14:45:10;;;;;;;12.87;2.00;;;5.70;99.90;;;;;;6220869;23;20180;-91
2022/02/05 14:47:41;;;;;;;4.70;1.53;;;5.60;99.90;;;;;;6220295;23;20183;-92
2022/02/05 14:50:12;;;;;;;8.67;1.53;;;5.60;99.90;;;;;;6222229;23;20184;-93
2022/02/05 14:52:43;;;;;;;8.17;2.00;;;5.60;99.90;;;;;;6221894;23;20620;-92
2022/02/05 14:55:14;;;;;;;7.10;1.60;;;5.70;99.90;;;;;;6219915;23;20624;-93
2022/02/05 14:57:47;;;;;;;4.00;1.33;;;5.70;99.90;;;;;;6220271;23;20231;-92
2022/02/05 15:00:19;;;;;;;7.87;1.80;;;5.80;99.90;;;;;;6221000;23;20199;-92
2022/02/05 15:02:50;;;;;;;5.20;1.43;;;5.80;99.90;;;;;;6221029;23;20180;-93
2022/02/05 15:05:23;;;;;;;5.70;1.40;;;5.80;99.90;;;;;;6220630;23;20175;-92
2022/02/05 15:07:54;;;;;;;7.57;1.60;;;5.80;99.90;;;;;;6220155;23;20187;-93
2022/02/05 15:10:25;;;;;;;10.67;1.93;;;5.90;99.90;;;;;;6195126;23;20562;-92
2022/02/05 15:12:58;;;;;;;7.40;1.63;;;5.90;99.90;;;;;;6220406;23;20563;-92
2022/02/05 15:15:30;;;;;;;7.03;2.00;;;5.90;99.90;;;;;;6220963;23;20615;-92
2022/02/05 15:18:02;;;;;;;5.20;2.07;;;6.00;99.90;;;;;;6219819;23;20204;-92
2022/02/05 15:20:34;;;;;;;8.07;1.90;;;6.00;99.90;;;;;;6220867;23;20279;-93
2022/02/05 15:23:07;;;;;;;4.70;1.73;;;6.00;99.90;;;;;;6224264;23;20196;-93
2022/02/05 15:25:38;;;;;;;12.10;2.13;;;6.00;99.90;;;;;;6220708;23;20169;-92
2022/02/05 15:28:13;;;;;;;4.80;1.77;;;6.00;99.90;;;;;;6220217;23;20240;-92
2022/02/05 15:30:44;;;;;;;6.37;2.03;;;6.00;99.90;;;;;;6221216;23;20203;-93
2022/02/05 15:33:20;;;;;;;6.87;2.27;;;6.00;99.90;;;;;;6221564;23;20177;-92
2022/02/05 15:35:52;;;;;;;5.03;2.07;;;6.00;99.90;;;;;;6219931;23;20219;-92
2022/02/05 15:38:31;;;;;;;7.40;1.60;;;6.00;99.90;;;;;;6222421;23;20180;-92
2022/02/05 15:43:54;;;;;;;7.40;2.27;;;6.10;99.90;;;;;;6227810;23;20171;-91
2022/02/05 15:46:25;;;;;;;7.93;2.20;;;6.10;99.90;;;;;;6241543;22;20187;-93
2022/02/05 15:48:57;;;;;;;9.67;2.43;;;6.10;99.90;;;;;;6240785;22;20193;-93
2022/02/05 15:51:47;;;;;;;9.37;2.80;;;6.20;99.90;;;;;;6240180;22;20160;-93
2022/02/05 15:54:17;;;;;;;5.87;2.33;;;6.20;99.90;;;;;;6240891;23;20168;-92
2022/02/05 15:56:58;;;;;;;7.33;2.03;;;6.20;99.90;;;;;;6240019;23;20219;-93
2022/02/05 15:59:50;;;;;;;7.90;2.70;;;6.20;99.90;;;;;;6241432;23;20162;-93
2022/02/05 16:02:21;;;;;;;11.83;2.97;;;6.30;99.90;;;;;;6240681;22;20183;-92
2022/02/05 16:04:52;;;;;;;6.57;2.50;;;6.30;99.90;;;;;;6238135;23;20696;-93
2022/02/05 16:07:23;;;;;;;7.13;2.33;;;6.30;99.90;;;;;;6234649;23;20183;-93
2022/02/05 16:09:54;;;;;;;3.23;1.73;;;6.30;99.90;;;;;;6230215;23;20165;-93
2022/02/05 16:12:28;;;;;;;7.37;2.20;;;6.20;99.90;;;;;;6227641;23;20207;-94
2022/02/05 16:15:01;;;;;;;5.37;2.30;;;6.30;99.90;;;;;;6229043;23;20177;-94
2022/02/05 16:17:32;;;;;;;3.40;1.90;;;6.30;99.90;;;;;;6225956;23;20257;-92
2022/02/05 16:20:07;;;;;;;8.67;2.37;;;6.40;99.90;;;;;;6208078;23;20215;-93
2022/02/05 16:22:39;;;;;;;7.40;2.73;;;6.40;99.90;;;;;;6227617;23;20203;-93
2022/02/05 16:25:14;;;;;;;8.30;2.80;;;6.40;99.90;;;;;;6227531;23;20178;-93
2022/02/05 16:27:50;;;;;;;7.57;2.33;;;6.40;99.90;;;;;;6227506;23;20179;-92
2022/02/05 16:30:24;;;;;;;3.70;1.97;;;6.40;99.90;;;;;;6228557;23;20190;-92
2022/02/05 16:32:57;;;;;;;4.40;2.13;;;6.50;99.90;;;;;;6236962;23;20180;-93
2022/02/05 16:35:31;;;;;;;5.17;1.77;;;6.50;99.90;;;;;;6239838;23;20164;-93